Golden Triangle Regional Airport
KGTR : now visible

Airfield :











YOU CAN JOIN US ON...

 
LOGIN :

Register | Disclaimer

   EN    FR    IT 

 









Legend :    VFR   Marginal VFR   IFR   Intensive IFR   Very Intensive IFR
Visi :
Ceiling :
>= 8 km
>= 3000ft
5 to 8 km
1000 to 3000 ft
1500m to 5 km
500 to 1000 ft
800 to 1500m
200 to 500 ft
< 800m
< 200 ft
Symbols :   Thunderstorms  Fog  Heavy snow  Heavy precipitations  Wind > 20 kt






- Airport Elevation : 264 ft


KGTR - Golden Triangle Regional

CURRENT METAR :
  • 211556Z 17010G15KT 10SM SCT033 28/21 A3001 RMK AO2 SLP165 T02830206

EXPIRED METARs :
  • 211456Z 16010KT 10SM SCT023 27/22 A3000 RMK AO2 SLP163 T02670217 51007
  • 211356Z 17007KT 10SM CLR 25/21 A3000 RMK AO2 SLP163 T02500211
  • 211256Z 16006KT 10SM CLR 23/20 A2999 RMK AO2 SLP159 T02280200
  • 211156Z 14007KT 10SM CLR 22/19 A2998 RMK AO2 SLP156 7//// T02170194 10228 20189 51018

TAF KGTR
Valid from the 21 at 12:00 until the 22 at 12:00 UTC


211139Z 2112/2212 17004KT P6SM SKC
FM211600 16010G19KT P6SM FEW250
FM220000 16007KT P6SM SKC
KZME FIR / North America



MET'MAP, your aeronautical weather chart ! - Copyright ORBIFLY December 2007 - Disclaimer

ORBIFLY MET'MAP TEAM :

Programming & Development : Alexandra Zaïnal
Original concept : Baudouin d'Aumeries
Technical & hardware support : Manuel Goepfert
Assistance : Marc-Olivier Méhu




SOURCES & CREDITS :

   NOAA       Earth
Advisory